Time;durP1;ratioP1;P1;durP2;ratioP2;P2;SDS_P1;SDS_P2;PMS_P1;PMS_P2;Temp;Humidity;BMP_temperature;BMP_pressure;BME280_temperature;BME280_humidity;BME280_pressure;Samples;Min_cycle;Max_cycle;Signal;HPM_P1;HPM_P2
2023/07/21 00:02:24;;;;;;;2.40;2.20;;;23.20;99.90;;;;;;5072288;28;20312;-77
2023/07/21 00:04:50;;;;;;;2.88;2.40;;;23.20;99.90;;;;;;5070816;28;20621;-76
2023/07/21 00:07:17;;;;;;;5.95;2.38;;;23.20;99.90;;;;;;5072893;28;20237;-76
2023/07/21 00:09:45;;;;;;;2.45;2.25;;;23.20;99.90;;;;;;5072099;28;20210;-77
2023/07/21 00:12:11;;;;;;;3.38;2.83;;;23.30;99.90;;;;;;5072764;28;20723;-77
2023/07/21 00:14:38;;;;;;;3.60;2.67;;;23.30;99.90;;;;;;5072490;28;20262;-76
2023/07/21 00:17:06;;;;;;;6.25;3.03;;;23.20;99.90;;;;;;5068939;28;20264;-76
2023/07/21 00:19:34;;;;;;;4.38;2.15;;;23.10;99.90;;;;;;5061970;28;20216;-76
2023/07/21 00:22:01;;;;;;;5.40;2.25;;;23.10;99.90;;;;;;5071862;28;20238;-76
2023/07/21 00:24:28;;;;;;;3.13;2.28;;;23.10;99.90;;;;;;5072453;28;20590;-76
2023/07/21 00:26:56;;;;;;;2.70;2.50;;;23.00;99.90;;;;;;5071734;28;20241;-77
2023/07/21 00:29:24;;;;;;;3.03;1.77;;;23.00;99.90;;;;;;5072153;28;20309;-76
2023/07/21 00:31:53;;;;;;;2.72;2.53;;;22.90;99.90;;;;;;5071847;28;20318;-76
2023/07/21 00:34:24;;;;;;;3.83;2.38;;;22.90;99.90;;;;;;5071549;28;20216;-76
2023/07/21 00:36:55;;;;;;;2.20;2.00;;;22.90;99.90;;;;;;5071750;28;20329;-76
2023/07/21 00:39:21;;;;;;;2.03;1.83;;;22.90;99.90;;;;;;5071869;28;20248;-76
2023/07/21 00:41:48;;;;;;;3.47;2.38;;;22.90;99.90;;;;;;5071297;28;20671;-76
2023/07/21 00:44:15;;;;;;;2.70;2.35;;;22.80;99.90;;;;;;5071860;28;20241;-77
2023/07/21 00:46:43;;;;;;;2.75;1.70;;;22.80;99.90;;;;;;5072025;28;20252;-77
2023/07/21 00:49:10;;;;;;;2.35;2.15;;;22.80;99.90;;;;;;5071864;28;20206;-76
2023/07/21 00:51:37;;;;;;;3.17;1.65;;;22.70;99.90;;;;;;5072029;28;20265;-77
2023/07/21 00:54:06;;;;;;;3.08;2.58;;;22.70;99.90;;;;;;5071194;28;20210;-79
2023/07/21 00:56:33;;;;;;;2.70;2.50;;;22.70;99.90;;;;;;5057598;28;20771;-76
2023/07/21 00:59:01;;;;;;;4.45;2.17;;;22.60;99.90;;;;;;5071345;28;20238;-76
2023/07/21 01:01:28;;;;;;;2.33;2.03;;;22.50;99.90;;;;;;5071440;28;20232;-76
2023/07/21 01:03:55;;;;;;;3.08;1.90;;;22.40;99.90;;;;;;5070824;28;20206;-76
2023/07/21 01:06:26;;;;;;;2.67;2.47;;;22.50;99.90;;;;;;5071240;28;20241;-76
2023/07/21 01:08:54;;;;;;;2.25;2.03;;;22.50;99.90;;;;;;5070878;28;20678;-76
2023/07/21 01:11:24;;;;;;;9.55;2.78;;;22.50;99.90;;;;;;5071048;28;20659;-77
2023/07/21 01:13:53;;;;;;;2.83;2.53;;;22.60;99.90;;;;;;5071097;28;20283;-78
2023/07/21 01:16:22;;;;;;;3.28;2.35;;;22.60;99.90;;;;;;5071038;28;20202;-78
2023/07/21 01:18:50;;;;;;;2.33;2.10;;;22.30;99.90;;;;;;5056509;28;20260;-78
2023/07/21 01:21:30;;;;;;;2.50;1.85;;;22.10;99.90;;;;;;5071104;28;20627;-77
2023/07/21 01:24:05;;;;;;;2.83;2.08;;;22.00;99.90;;;;;;5070415;28;20687;-78
2023/07/21 01:26:36;;;;;;;2.63;2.20;;;22.00;99.90;;;;;;5071012;28;20213;-77
2023/07/21 01:29:05;;;;;;;2.85;2.08;;;21.90;99.90;;;;;;5070580;28;20233;-78
2023/07/21 01:31:32;;;;;;;4.72;2.33;;;22.00;99.90;;;;;;5070862;28;20229;-77
2023/07/21 01:34:00;;;;;;;2.55;2.15;;;21.90;99.90;;;;;;5070148;28;20351;-78
2023/07/21 01:36:27;;;;;;;4.55;2.50;;;22.00;99.90;;;;;;5070907;28;20237;-77
2023/07/21 01:38:54;;;;;;;4.65;2.08;;;22.00;99.90;;;;;;5070305;28;20249;-77
2023/07/21 01:41:21;;;;;;;4.25;2.38;;;22.00;99.90;;;;;;5070805;28;20242;-77
2023/07/21 01:43:50;;;;;;;2.40;2.20;;;21.90;99.90;;;;;;5070225;28;20643;-77
2023/07/21 01:46:17;;;;;;;2.88;1.85;;;21.90;99.90;;;;;;5070345;28;20234;-77
2023/07/21 01:48:47;;;;;;;3.60;2.88;;;22.00;99.90;;;;;;5070465;28;20684;-77
2023/07/21 01:51:17;;;;;;;3.85;1.88;;;22.00;99.90;;;;;;5070707;28;20260;-77
2023/07/21 01:53:49;;;;;;;1.95;1.80;;;21.90;99.90;;;;;;5070429;28;20265;-77
2023/07/21 01:56:25;;;;;;;1.98;1.70;;;21.80;99.90;;;;;;5070709;28;20240;-77
2023/07/21 01:58:55;;;;;;;3.38;2.53;;;21.80;99.90;;;;;;5070145;28;20251;-77
2023/07/21 02:01:23;;;;;;;2.67;2.05;;;21.70;99.90;;;;;;5070111;28;20591;-77
2023/07/21 02:03:50;;;;;;;3.85;2.00;;;21.60;99.90;;;;;;5054808;28;20268;-77
2023/07/21 02:06:18;;;;;;;2.65;1.90;;;21.60;99.90;;;;;;5050518;28;20557;-77
2023/07/21 02:08:45;;;;;;;2.33;1.85;;;21.50;99.90;;;;;;5054021;28;20654;-77
2023/07/21 02:11:12;;;;;;;1.98;1.77;;;21.40;99.90;;;;;;5070757;28;20585;-77
2023/07/21 02:13:39;;;;;;;2.65;2.13;;;21.40;99.90;;;;;;5056779;28;20262;-76
2023/07/21 02:16:07;;;;;;;3.58;2.15;;;21.40;99.90;;;;;;5070165;28;20210;-77
2023/07/21 02:18:35;;;;;;;1.95;1.70;;;21.40;99.90;;;;;;5070213;28;20315;-77
2023/07/21 02:21:03;;;;;;;2.67;1.90;;;21.40;99.90;;;;;;5059423;28;20643;-79
2023/07/21 02:23:31;;;;;;;3.60;1.80;;;21.40;99.90;;;;;;5067268;28;20259;-77
2023/07/21 02:25:58;;;;;;;1.75;1.52;;;21.30;99.90;;;;;;5070000;28;20241;-77
2023/07/21 02:28:25;;;;;;;1.63;1.52;;;21.20;99.90;;;;;;5074071;28;20242;-77
2023/07/21 02:31:03;;;;;;;2.83;2.45;;;21.20;99.90;;;;;;5073984;28;20238;-76
2023/07/21 02:33:32;;;;;;;6.38;2.20;;;21.20;99.90;;;;;;5074219;28;20314;-76
2023/07/21 02:36:00;;;;;;;3.38;1.70;;;21.20;99.90;;;;;;5074032;28;20241;-77
2023/07/21 02:38:27;;;;;;;5.15;2.72;;;21.20;99.90;;;;;;5060619;28;20206;-76
2023/07/21 02:40:54;;;;;;;5.55;2.65;;;21.10;99.90;;;;;;5073433;28;20237;-76
2023/07/21 02:43:22;;;;;;;2.58;1.90;;;21.00;99.90;;;;;;5074170;28;20238;-76
2023/07/21 02:45:50;;;;;;;2.40;1.63;;;21.00;99.90;;;;;;5073622;28;20206;-76
2023/07/21 02:48:18;;;;;;;2.20;2.00;;;21.00;99.90;;;;;;5074150;28;20296;-76
2023/07/21 02:50:48;;;;;;;2.08;1.83;;;21.10;99.90;;;;;;5073578;28;20248;-76
2023/07/21 02:53:16;;;;;;;1.40;1.30;;;21.10;99.90;;;;;;5073902;28;20237;-76
2023/07/21 02:55:43;;;;;;;2.78;1.65;;;21.00;99.90;;;;;;5073978;28;20274;-76
2023/07/21 02:58:12;;;;;;;2.00;1.80;;;20.90;99.90;;;;;;5074547;28;20245;-76
2023/07/21 03:00:39;;;;;;;3.15;1.90;;;20.90;99.90;;;;;;5073909;28;20206;-76
2023/07/21 03:03:07;;;;;;;2.42;1.60;;;20.80;99.90;;;;;;5073610;28;20202;-76
2023/07/21 03:05:34;;;;;;;1.88;1.58;;;20.80;99.90;;;;;;5073548;28;20259;-76
2023/07/21 03:08:03;;;;;;;3.00;1.90;;;20.80;99.90;;;;;;5073290;28;20230;-75
2023/07/21 03:10:30;;;;;;;2.42;1.95;;;20.80;99.90;;;;;;5073707;28;20296;-76
2023/07/21 03:12:57;;;;;;;2.05;1.60;;;20.70;99.90;;;;;;5059035;28;20683;-76
2023/07/21 03:15:24;;;;;;;2.45;1.75;;;20.60;99.90;;;;;;5073463;28;20206;-75
2023/07/21 03:17:52;;;;;;;1.80;1.70;;;20.60;99.90;;;;;;5072995;28;20241;-76
2023/07/21 03:20:19;;;;;;;2.40;1.83;;;20.70;99.90;;;;;;5073404;28;20206;-76
2023/07/21 03:22:46;;;;;;;3.70;2.10;;;20.60;99.90;;;;;;5073052;28;20705;-75
2023/07/21 03:25:15;;;;;;;2.97;2.30;;;20.70;99.90;;;;;;5073120;28;20245;-76
2023/07/21 03:27:43;;;;;;;2.08;1.88;;;20.60;99.90;;;;;;5073483;28;20256;-76
2023/07/21 03:30:10;;;;;;;1.95;1.63;;;20.70;99.90;;;;;;5073482;28;20199;-75
2023/07/21 03:32:38;;;;;;;4.47;1.73;;;20.70;99.90;;;;;;5073236;28;20327;-76
2023/07/21 03:35:05;;;;;;;2.17;1.80;;;20.70;99.90;;;;;;5072608;28;20263;-76
2023/07/21 03:37:34;;;;;;;2.38;1.90;;;20.60;99.90;;;;;;5072938;28;20218;-76
2023/07/21 03:40:02;;;;;;;1.73;1.42;;;20.60;99.90;;;;;;5072651;28;20211;-75
2023/07/21 03:42:31;;;;;;;2.03;1.50;;;20.70;99.90;;;;;;5072886;28;20210;-76
2023/07/21 03:44:58;;;;;;;3.85;1.98;;;20.70;99.90;;;;;;5072635;28;20263;-76
2023/07/21 03:47:25;;;;;;;3.35;1.55;;;20.60;99.90;;;;;;5073024;28;20701;-76
2023/07/21 03:49:52;;;;;;;1.55;1.45;;;20.50;99.90;;;;;;5072570;28;20589;-76
2023/07/21 03:52:19;;;;;;;2.40;2.03;;;20.40;99.90;;;;;;5072731;28;20245;-76
2023/07/21 03:54:46;;;;;;;2.28;1.60;;;20.50;99.90;;;;;;5072316;28;20211;-76
2023/07/21 03:57:14;;;;;;;1.98;1.38;;;20.50;99.90;;;;;;5072483;28;20713;-75
2023/07/21 03:59:42;;;;;;;1.50;1.33;;;20.50;99.90;;;;;;5073070;28;20216;-76
2023/07/21 04:02:09;;;;;;;3.33;1.40;;;20.40;99.90;;;;;;5073079;28;20210;-75
2023/07/21 04:04:36;;;;;;;2.33;1.65;;;20.40;99.90;;;;;;5072831;28;20716;-78
2023/07/21 04:07:05;;;;;;;2.72;2.10;;;20.40;99.90;;;;;;5072354;28;20273;-76
2023/07/21 04:09:32;;;;;;;2.47;2.00;;;20.40;99.90;;;;;;5058965;28;20232;-76
2023/07/21 04:11:59;;;;;;;3.05;1.63;;;20.30;99.90;;;;;;5063315;28;20246;-76
2023/07/21 04:14:26;;;;;;;2.05;1.65;;;20.40;99.90;;;;;;5066826;28;20269;-75
2023/07/21 04:16:56;;;;;;;1.88;1.40;;;20.40;99.90;;;;;;5072153;28;20688;-76
2023/07/21 04:19:25;;;;;;;2.55;2.03;;;20.50;99.90;;;;;;5072700;28;20206;-76
2023/07/21 04:21:52;;;;;;;2.28;1.60;;;20.50;99.90;;;;;;5072000;28;20198;-76
2023/07/21 04:24:19;;;;;;;2.90;1.90;;;20.60;99.90;;;;;;5072312;28;20246;-76
2023/07/21 04:26:46;;;;;;;3.50;1.92;;;20.40;99.90;;;;;;5071520;28;20230;-75
2023/07/21 04:29:13;;;;;;;2.40;1.85;;;20.40;99.90;;;;;;5072419;28;20245;-76
2023/07/21 04:31:40;;;;;;;3.30;1.80;;;20.40;99.90;;;;;;5072181;28;20206;-75
2023/07/21 04:34:08;;;;;;;2.63;1.80;;;20.40;99.90;;;;;;5071738;28;20291;-76
2023/07/21 04:36:36;;;;;;;1.50;1.40;;;20.40;99.90;;;;;;5072123;28;20690;-76
2023/07/21 04:39:03;;;;;;;2.13;1.55;;;20.40;99.90;;;;;;5071593;28;20221;-76
2023/07/21 04:41:30;;;;;;;1.60;1.50;;;20.30;99.90;;;;;;5071683;28;20206;-75
2023/07/21 04:43:57;;;;;;;3.58;1.85;;;20.20;99.90;;;;;;5071387;28;20634;-78
2023/07/21 04:46:24;;;;;;;2.60;1.77;;;20.20;99.90;;;;;;5072026;28;20233;-79
2023/07/21 04:48:51;;;;;;;2.58;1.67;;;20.20;99.90;;;;;;5071166;28;20234;-78
2023/07/21 04:51:19;;;;;;;3.15;1.55;;;20.20;99.90;;;;;;5071328;28;20244;-79
2023/07/21 04:53:46;;;;;;;3.53;1.92;;;20.30;99.90;;;;;;5071153;28;20234;-76
2023/07/21 04:56:14;;;;;;;2.33;1.80;;;20.40;99.90;;;;;;5071166;28;20584;-76
2023/07/21 04:58:41;;;;;;;3.90;1.77;;;20.50;99.90;;;;;;5071439;28;20677;-76
2023/07/21 05:01:08;;;;;;;1.60;1.50;;;20.60;99.90;;;;;;5071178;28;20202;-76
2023/07/21 05:03:35;;;;;;;2.67;2.03;;;20.50;99.90;;;;;;5071252;28;20237;-76
2023/07/21 05:06:02;;;;;;;1.95;1.70;;;20.40;99.90;;;;;;5070903;28;20585;-75
2023/07/21 05:08:30;;;;;;;3.60;1.90;;;20.50;99.90;;;;;;5071352;28;20595;-76
2023/07/21 05:10:57;;;;;;;2.83;2.22;;;20.40;99.90;;;;;;5070967;28;20238;-76
2023/07/21 05:13:24;;;;;;;2.40;1.55;;;20.30;99.90;;;;;;5057487;28;20265;-76
2023/07/21 05:15:51;;;;;;;4.07;1.88;;;20.40;99.90;;;;;;5071110;28;20241;-76
2023/07/21 05:18:18;;;;;;;2.75;1.98;;;20.40;99.90;;;;;;5071041;28;20652;-76
2023/07/21 05:20:45;;;;;;;2.95;1.90;;;20.40;99.90;;;;;;5070834;28;20256;-76
2023/07/21 05:23:12;;;;;;;3.90;1.83;;;20.50;99.90;;;;;;5071083;28;20693;-76
2023/07/21 05:25:40;;;;;;;3.03;1.42;;;20.40;99.90;;;;;;5071183;28;20210;-76
2023/07/21 05:28:08;;;;;;;3.03;1.50;;;20.50;99.90;;;;;;5070850;28;20259;-76
2023/07/21 05:30:35;;;;;;;4.28;1.75;;;20.60;99.90;;;;;;5071100;28;20218;-76
2023/07/21 05:33:02;;;;;;;2.20;1.92;;;20.70;99.90;;;;;;5070336;28;21099;-76
2023/07/21 05:35:30;;;;;;;3.33;1.55;;;20.70;99.90;;;;;;5070840;28;20236;-76
2023/07/21 05:37:56;;;;;;;9.02;1.70;;;20.70;99.90;;;;;;5070497;28;20227;-76
2023/07/21 05:40:23;;;;;;;4.13;1.35;;;20.70;99.90;;;;;;5070629;28;20252;-75
2023/07/21 05:42:52;;;;;;;3.47;1.77;;;20.70;99.90;;;;;;5070589;28;20202;-76
2023/07/21 05:45:19;;;;;;;2.20;1.60;;;20.70;99.90;;;;;;5070665;28;20564;-78
2023/07/21 05:47:46;;;;;;;2.50;1.70;;;20.70;99.90;;;;;;5070425;28;20249;-74
2023/07/21 05:50:12;;;;;;;3.35;1.63;;;20.70;99.90;;;;;;5070488;28;20700;-75
2023/07/21 05:52:39;;;;;;;1.95;1.42;;;20.60;99.90;;;;;;5071239;28;20241;-75
2023/07/21 05:55:07;;;;;;;5.53;1.98;;;20.70;99.90;;;;;;5070486;28;20269;-80
2023/07/21 05:57:34;;;;;;;5.47;1.73;;;20.70;99.90;;;;;;5070263;28;20210;-83
2023/07/21 06:00:04;;;;;;;4.10;1.90;;;20.70;99.90;;;;;;5070275;28;20202;-81
2023/07/21 06:02:31;;;;;;;3.28;1.65;;;20.60;99.90;;;;;;5070771;28;20233;-76
2023/07/21 06:04:58;;;;;;;2.63;1.83;;;20.70;99.90;;;;;;5070116;28;20238;-74
2023/07/21 06:07:25;;;;;;;4.53;1.60;;;20.70;99.90;;;;;;5070432;28;20214;-82
2023/07/21 06:09:52;;;;;;;2.80;1.90;;;20.60;99.90;;;;;;5070540;28;20206;-81
2023/07/21 06:12:19;;;;;;;4.13;2.30;;;20.60;99.90;;;;;;5059382;28;20241;-80
2023/07/21 06:14:46;;;;;;;4.50;1.48;;;20.70;99.90;;;;;;5067309;28;20748;-81
2023/07/21 06:17:14;;;;;;;1.60;1.30;;;20.80;99.90;;;;;;5070387;28;20238;-75
2023/07/21 06:19:41;;;;;;;1.98;1.30;;;20.80;99.90;;;;;;5070294;28;20241;-77
2023/07/21 06:22:08;;;;;;;3.92;1.48;;;20.70;99.90;;;;;;5070183;28;20238;-81
2023/07/21 06:24:35;;;;;;;3.67;1.98;;;20.70;99.90;;;;;;5070448;28;20205;-79
2023/07/21 06:27:02;;;;;;;3.95;2.60;;;20.70;99.90;;;;;;5070101;28;20287;-82
2023/07/21 06:29:29;;;;;;;4.45;1.50;;;20.80;99.90;;;;;;5070319;28;20293;-81
2023/07/21 06:31:56;;;;;;;1.98;1.40;;;20.80;99.90;;;;;;5069496;28;20294;-81
2023/07/21 06:34:24;;;;;;;2.17;1.88;;;20.90;99.90;;;;;;5070153;28;20276;-79
2023/07/21 06:36:51;;;;;;;2.25;1.75;;;20.90;99.90;;;;;;5069659;28;20299;-80
2023/07/21 06:39:18;;;;;;;3.10;1.92;;;21.00;99.90;;;;;;5070229;28;20734;-80
2023/07/21 06:41:46;;;;;;;2.65;1.45;;;21.20;99.90;;;;;;5069780;28;20206;-79
2023/07/21 06:44:14;;;;;;;1.75;1.65;;;21.30;99.90;;;;;;5070121;28;20392;-77
2023/07/21 06:46:42;;;;;;;3.83;1.58;;;21.30;99.90;;;;;;5070437;28;20306;-81
2023/07/21 06:49:09;;;;;;;2.53;1.52;;;21.50;99.90;;;;;;5070312;28;20209;-81
2023/07/21 06:51:37;;;;;;;3.25;1.80;;;21.50;99.90;;;;;;5070060;28;20645;-80
2023/07/21 06:54:06;;;;;;;2.75;2.00;;;21.70;99.90;;;;;;5069672;28;20307;-79
2023/07/21 06:56:33;;;;;;;4.13;1.65;;;21.80;99.90;;;;;;5070048;28;20221;-80
2023/07/21 06:59:00;;;;;;;2.35;2.00;;;21.80;99.90;;;;;;5069473;28;20383;-80
2023/07/21 07:01:27;;;;;;;2.47;1.60;;;21.80;99.90;;;;;;5070278;28;20206;-78
2023/07/21 07:03:55;;;;;;;3.72;1.95;;;21.90;99.90;;;;;;5069859;28;20217;-80
2023/07/21 07:06:22;;;;;;;1.88;1.70;;;21.90;99.90;;;;;;5069920;28;20209;-81
2023/07/21 07:08:52;;;;;;;6.32;1.80;;;22.00;99.90;;;;;;5069337;28;20234;-80
2023/07/21 07:11:19;;;;;;;3.75;2.10;;;21.90;99.90;;;;;;5064628;28;20246;-79
2023/07/21 07:13:46;;;;;;;9.70;1.75;;;22.10;99.90;;;;;;5052998;28;20274;-79
2023/07/21 07:16:13;;;;;;;3.45;1.92;;;22.30;99.90;;;;;;5057356;28;20240;-75
2023/07/21 07:18:40;;;;;;;1.80;1.25;;;22.40;99.90;;;;;;5053858;28;20206;-78
2023/07/21 07:21:07;;;;;;;2.58;2.20;;;22.40;99.90;;;;;;5052842;28;20687;-77
2023/07/21 07:23:34;;;;;;;3.70;1.58;;;22.40;99.90;;;;;;5053407;28;20250;-76
2023/07/21 07:26:04;;;;;;;3.80;1.70;;;22.30;99.90;;;;;;5052748;28;20217;-77
2023/07/21 07:28:31;;;;;;;5.43;2.22;;;22.20;99.90;;;;;;5053482;28;20630;-79
2023/07/21 07:31:03;;;;;;;2.40;1.70;;;22.30;99.90;;;;;;5053203;28;20261;-77
2023/07/21 07:33:29;;;;;;;4.88;1.83;;;22.40;99.90;;;;;;5066118;28;20246;-77
2023/07/21 07:35:56;;;;;;;3.88;1.35;;;22.40;99.90;;;;;;5072089;28;20251;-77
2023/07/21 07:38:26;;;;;;;5.20;1.52;;;22.40;99.90;;;;;;5053159;28;20624;-77
2023/07/21 07:40:53;;;;;;;3.08;2.15;;;22.30;99.90;;;;;;5052768;28;20235;-77
2023/07/21 07:43:22;;;;;;;2.03;1.30;;;22.40;99.90;;;;;;5052077;28;20202;-77
2023/07/21 07:45:49;;;;;;;5.35;1.48;;;22.70;99.90;;;;;;5051071;28;20242;-77
2023/07/21 07:48:15;;;;;;;4.68;1.90;;;23.10;99.90;;;;;;5052829;28;20238;-76
2023/07/21 07:50:43;;;;;;;5.10;1.75;;;23.10;99.90;;;;;;5052447;28;20257;-76
2023/07/21 07:53:11;;;;;;;1.63;1.40;;;23.20;99.90;;;;;;5051943;28;20226;-76
2023/07/21 07:55:38;;;;;;;2.30;2.05;;;23.20;99.90;;;;;;5053185;28;20238;-77
2023/07/21 07:58:06;;;;;;;2.50;1.70;;;23.30;99.90;;;;;;5052339;28;20226;-76
2023/07/21 08:00:36;;;;;;;3.00;1.85;;;23.50;99.90;;;;;;5052875;28;20348;-76
2023/07/21 08:03:04;;;;;;;1.40;1.20;;;23.70;99.90;;;;;;5052048;28;20206;-82
2023/07/21 08:05:31;;;;;;;1.13;0.95;;;23.70;99.90;;;;;;5052100;28;20206;-77
2023/07/21 08:08:01;;;;;;;3.70;1.65;;;23.80;99.90;;;;;;5052091;28;20238;-77
2023/07/21 08:10:28;;;;;;;1.45;1.35;;;23.90;99.90;;;;;;5052422;28;20218;-76
2023/07/21 08:12:55;;;;;;;3.65;1.67;;;24.20;99.90;;;;;;5054208;28;20238;-77
2023/07/21 08:15:22;;;;;;;1.60;1.50;;;24.30;99.90;;;;;;5072534;28;20234;-76
2023/07/21 08:17:51;;;;;;;3.72;1.60;;;24.30;99.90;;;;;;5071706;28;20260;-76
2023/07/21 08:20:19;;;;;;;1.25;1.05;;;24.50;99.90;;;;;;5072434;28;20237;-77
2023/07/21 08:22:46;;;;;;;1.77;1.33;;;24.40;99.90;;;;;;5071947;28;20206;-78
2023/07/21 08:25:13;;;;;;;2.15;1.23;;;24.50;99.90;;;;;;5070911;28;20210;-76
2023/07/21 08:27:40;;;;;;;1.60;1.13;;;24.60;99.90;;;;;;5072678;28;20210;-76
2023/07/21 08:30:08;;;;;;;4.60;1.90;;;24.50;99.90;;;;;;5072033;28;20669;-77
2023/07/21 08:32:36;;;;;;;2.20;1.48;;;24.80;99.90;;;;;;5071751;28;20659;-79
2023/07/21 08:35:05;;;;;;;4.13;1.55;;;24.80;99.90;;;;;;5071579;28;20306;-77
2023/07/21 08:37:32;;;;;;;4.28;1.42;;;24.70;99.90;;;;;;5072402;28;20246;-78
2023/07/21 08:39:59;;;;;;;1.88;1.50;;;24.80;99.90;;;;;;5071594;28;20267;-77
2023/07/21 08:42:27;;;;;;;2.72;1.40;;;24.90;99.90;;;;;;5072026;28;20267;-77
2023/07/21 08:44:55;;;;;;;4.00;1.35;;;25.20;99.90;;;;;;5071509;28;20295;-77
2023/07/21 08:47:23;;;;;;;2.67;1.75;;;25.30;99.90;;;;;;5071517;28;20252;-77
2023/07/21 08:49:51;;;;;;;2.13;1.35;;;25.20;99.90;;;;;;5071471;28;20240;-76
2023/07/21 08:52:19;;;;;;;3.03;1.27;;;25.00;99.90;;;;;;5071445;28;20241;-78
2023/07/21 08:54:46;;;;;;;2.13;1.70;;;25.00;99.90;;;;;;5071311;28;20317;-76
2023/07/21 08:57:14;;;;;;;1.92;1.60;;;25.20;99.90;;;;;;5071577;28;20241;-76
2023/07/21 08:59:41;;;;;;;1.48;1.00;;;25.40;99.90;;;;;;5071843;28;20206;-77
2023/07/21 09:02:09;;;;;;;1.75;1.40;;;25.30;99.90;;;;;;5071055;28;20245;-77
2023/07/21 09:04:36;;;;;;;3.47;1.42;;;25.20;99.90;;;;;;5071694;28;20279;-78
2023/07/21 09:07:04;;;;;;;1.63;1.50;;;25.00;99.90;;;;;;5071275;28;20214;-77
2023/07/21 09:09:33;;;;;;;2.45;1.33;;;25.50;99.90;;;;;;5071595;28;20233;-77
2023/07/21 09:12:02;;;;;;;2.72;1.17;;;25.80;99.90;;;;;;5062263;28;20280;-77
2023/07/21 09:14:36;;;;;;;4.72;1.38;;;25.60;99.90;;;;;;5065957;28;20226;-77
2023/07/21 09:17:04;;;;;;;3.05;1.60;;;25.60;99.90;;;;;;5070823;28;20241;-77
2023/07/21 09:19:35;;;;;;;3.80;1.30;;;25.90;99.90;;;;;;5071321;28;20206;-76
2023/07/21 09:22:02;;;;;;;3.13;1.30;;;26.10;99.90;;;;;;5070884;28;20238;-77
2023/07/21 09:24:29;;;;;;;2.17;1.38;;;25.50;99.90;;;;;;5071093;28;20684;-77
2023/07/21 09:30:00;;;;;;;1.95;1.60;;;25.80;99.90;;;;;;5108045;27;20610;-75
2023/07/21 09:32:27;;;;;;;1.30;1.20;;;26.30;99.90;;;;;;5108137;28;20595;-76
2023/07/21 09:34:55;;;;;;;2.10;1.30;;;26.50;99.90;;;;;;5107770;28;20232;-76
2023/07/21 09:37:24;;;;;;;2.17;1.65;;;26.50;99.90;;;;;;5108289;28;20240;-76
2023/07/21 09:39:56;;;;;;;1.20;1.10;;;26.60;99.90;;;;;;5107991;28;20237;-76
2023/07/21 09:42:25;;;;;;;2.20;1.52;;;26.30;99.90;;;;;;5081466;28;20211;-76
2023/07/21 09:44:55;;;;;;;2.25;1.98;;;26.10;99.90;;;;;;5107744;28;20201;-76
2023/07/21 09:47:22;;;;;;;3.10;1.30;;;26.20;99.90;;;;;;5108306;28;20293;-76
2023/07/21 09:49:53;;;;;;;3.10;1.30;;;26.20;99.90;;;;;;5107449;28;20268;-76
2023/07/21 09:52:21;;;;;;;1.42;1.13;;;26.10;99.90;;;;;;5107987;28;20336;-76
2023/07/21 09:54:49;;;;;;;1.45;1.35;;;26.10;99.90;;;;;;5107844;28;20208;-76
2023/07/21 09:57:20;;;;;;;1.63;1.10;;;26.60;99.90;;;;;;5107800;28;20197;-76
2023/07/21 09:59:50;;;;;;;1.23;1.13;;;27.00;99.90;;;;;;5107305;28;20241;-75
2023/07/21 10:02:19;;;;;;;2.90;1.75;;;26.90;99.90;;;;;;5107505;28;20241;-75
2023/07/21 10:04:47;;;;;;;4.20;1.38;;;27.30;99.90;;;;;;5107463;28;20231;-76
2023/07/21 10:07:14;;;;;;;3.20;1.42;;;29.00;99.90;;;;;;5107755;28;20255;-77
2023/07/21 10:09:44;;;;;;;2.28;1.90;;;28.80;99.90;;;;;;5107981;28;20268;-76
2023/07/21 10:12:14;;;;;;;3.00;1.70;;;28.40;99.90;;;;;;5097531;28;20209;-76
2023/07/21 10:14:42;;;;;;;1.88;1.63;;;28.80;99.90;;;;;;5103951;28;20240;-77
2023/07/21 10:17:10;;;;;;;1.40;1.30;;;30.70;99.90;;;;;;5108097;28;20579;-77
2023/07/21 10:19:42;;;;;;;1.98;1.75;;;32.40;99.90;;;;;;5107327;28;20672;-81
2023/07/21 10:22:12;;;;;;;1.20;1.10;;;33.10;99.90;;;;;;5107531;28;20205;-76
2023/07/21 10:24:45;;;;;;;1.75;1.45;;;31.50;99.90;;;;;;5107665;28;20236;-80
2023/07/21 10:27:20;;;;;;;2.03;1.50;;;29.10;99.90;;;;;;5107431;28;20204;-76
2023/07/21 10:29:47;;;;;;;2.45;1.35;;;28.40;99.90;;;;;;5106285;28;20742;-76
2023/07/21 10:32:14;;;;;;;2.67;1.30;;;28.40;99.90;;;;;;5107668;28;20237;-75
2023/07/21 10:34:43;;;;;;;1.73;1.38;;;28.10;99.90;;;;;;5107567;28;20240;-76
2023/07/21 10:37:10;;;;;;;2.15;1.60;;;27.20;99.90;;;;;;5107364;28;20228;-75
2023/07/21 10:39:41;;;;;;;2.15;1.63;;;26.10;99.90;;;;;;5102190;28;20688;-76
2023/07/21 10:42:09;;;;;;;3.60;1.92;;;25.80;99.90;;;;;;5093211;28;20259;-76
2023/07/21 10:44:38;;;;;;;4.38;1.85;;;25.60;99.90;;;;;;5093312;28;20754;-76
2023/07/21 10:47:06;;;;;;;2.50;2.30;;;25.50;99.90;;;;;;5092861;28;20205;-82
2023/07/21 10:49:34;;;;;;;1.40;1.30;;;25.70;99.90;;;;;;5093198;28;20269;-77
2023/07/21 10:52:04;;;;;;;2.08;1.38;;;25.70;99.90;;;;;;5092731;28;20209;-78
2023/07/21 10:54:32;;;;;;;1.63;1.52;;;26.60;99.90;;;;;;5093525;28;20201;-82
2023/07/21 10:57:00;;;;;;;2.28;1.60;;;26.90;99.90;;;;;;5092786;28;20267;-76
2023/07/21 10:59:30;;;;;;;2.97;1.90;;;27.30;99.90;;;;;;5093072;28;20197;-76
2023/07/21 11:01:57;;;;;;;1.40;1.20;;;27.20;99.90;;;;;;5092940;28;20248;-77
2023/07/21 11:04:24;;;;;;;1.90;1.73;;;26.70;99.90;;;;;;5092866;28;20254;-76
2023/07/21 11:06:53;;;;;;;1.63;1.52;;;26.60;99.90;;;;;;5092463;28;20267;-76
2023/07/21 11:09:22;;;;;;;1.92;1.67;;;27.00;99.90;;;;;;5092932;28;20325;-76
2023/07/21 11:11:51;;;;;;;1.92;1.70;;;27.60;99.90;;;;;;5085201;28;20210;-81
2023/07/21 11:14:20;;;;;;;1.40;1.30;;;28.10;99.90;;;;;;5086683;28;20237;-75
2023/07/21 11:16:52;;;;;;;1.60;1.48;;;27.90;99.90;;;;;;5064084;28;20715;-76
2023/07/21 11:19:19;;;;;;;3.88;1.60;;;27.40;99.90;;;;;;5092903;28;20699;-78
2023/07/21 11:21:46;;;;;;;1.75;1.52;;;27.00;99.90;;;;;;5092596;28;20591;-76
2023/07/21 11:24:17;;;;;;;1.45;1.23;;;26.60;99.90;;;;;;5092759;28;20206;-77
2023/07/21 11:26:48;;;;;;;2.53;1.55;;;26.70;99.90;;;;;;5092123;28;20206;-76
2023/07/21 11:29:16;;;;;;;3.08;1.60;;;27.20;99.90;;;;;;5092407;28;20233;-77
2023/07/21 11:31:43;;;;;;;1.65;1.30;;;27.30;99.90;;;;;;5092392;28;20210;-76
2023/07/21 11:34:20;;;;;;;1.23;1.13;;;27.70;99.90;;;;;;5093087;28;20237;-76
2023/07/21 11:36:48;;;;;;;2.03;1.33;;;27.80;99.90;;;;;;5092068;28;20244;-76
2023/07/21 11:39:19;;;;;;;0.98;0.90;;;27.50;99.90;;;;;;5092434;28;20209;-77
2023/07/21 11:41:53;;;;;;;4.07;1.75;;;26.90;99.90;;;;;;5091626;28;20233;-76
2023/07/21 11:44:26;;;;;;;2.08;1.80;;;26.60;99.90;;;;;;5092266;28;20210;-76
2023/07/21 11:46:59;;;;;;;2.00;1.15;;;26.60;99.90;;;;;;5091790;28;20209;-75
2023/07/21 11:49:28;;;;;;;1.58;1.35;;;27.10;99.90;;;;;;5092214;28;20240;-76
2023/07/21 11:51:58;;;;;;;2.10;1.48;;;27.30;99.90;;;;;;5090493;28;20211;-76
2023/07/21 11:54:26;;;;;;;3.55;1.38;;;27.20;99.90;;;;;;5092039;28;20201;-75
2023/07/21 11:56:57;;;;;;;2.28;1.30;;;27.00;99.90;;;;;;5091173;28;20232;-76
2023/07/21 11:59:24;;;;;;;1.85;1.58;;;26.70;99.90;;;;;;5092208;28;20240;-76
2023/07/21 12:01:52;;;;;;;1.77;1.67;;;26.70;99.90;;;;;;5091632;28;20704;-76
2023/07/21 12:04:22;;;;;;;1.33;1.23;;;26.90;99.90;;;;;;5091658;28;20314;-81
2023/07/21 12:06:48;;;;;;;1.83;1.20;;;27.20;99.90;;;;;;5091397;28;20288;-76
2023/07/21 12:09:16;;;;;;;2.55;1.20;;;27.00;99.90;;;;;;5091720;28;20295;-76
2023/07/21 12:11:44;;;;;;;1.35;1.02;;;26.90;99.90;;;;;;5085399;28;20212;-76
2023/07/21 12:14:12;;;;;;;2.83;1.40;;;27.00;99.90;;;;;;5084647;28;20237;-76
2023/07/21 12:16:39;;;;;;;2.60;1.27;;;27.30;99.90;;;;;;5091790;28;20270;-76
2023/07/21 12:19:09;;;;;;;1.67;1.42;;;27.30;99.90;;;;;;5091335;28;20248;-76
2023/07/21 12:21:36;;;;;;;1.17;0.95;;;27.40;99.90;;;;;;5091448;28;20202;-76
2023/07/21 12:24:03;;;;;;;3.38;1.65;;;27.30;99.90;;;;;;5091208;28;20304;-76
2023/07/21 12:26:30;;;;;;;0.98;0.98;;;27.10;99.90;;;;;;5091266;28;20248;-75
2023/07/21 12:28:57;;;;;;;1.80;1.33;;;26.80;99.90;;;;;;5090681;28;20261;-80
2023/07/21 12:31:26;;;;;;;2.65;1.20;;;26.70;99.90;;;;;;5091328;28;20239;-76
2023/07/21 12:33:53;;;;;;;1.60;1.40;;;26.60;99.90;;;;;;5090970;28;20673;-76
2023/07/21 12:36:20;;;;;;;1.60;1.45;;;26.60;99.90;;;;;;5091124;28;20240;-76
2023/07/21 12:38:48;;;;;;;1.10;1.05;;;26.80;99.90;;;;;;5090379;28;20259;-76
2023/07/21 12:41:14;;;;;;;6.35;1.27;;;27.10;99.90;;;;;;5091263;28;20201;-76
2023/07/21 12:43:41;;;;;;;4.97;1.48;;;27.50;99.90;;;;;;5091492;28;20205;-76
2023/07/21 12:46:12;;;;;;;3.83;1.42;;;27.50;99.90;;;;;;5091034;28;20673;-76
2023/07/21 12:48:40;;;;;;;1.77;1.67;;;27.50;99.90;;;;;;5091176;28;20207;-76
2023/07/21 12:51:07;;;;;;;1.58;1.48;;;27.50;99.90;;;;;;5090630;28;20240;-76
2023/07/21 12:53:34;;;;;;;1.95;1.40;;;27.70;99.90;;;;;;5090536;28;20205;-76
2023/07/21 12:56:01;;;;;;;2.08;0.98;;;27.80;99.90;;;;;;5090730;28;20241;-76